Thompson, Iowa
Current Conditions -  °F | °C
As of 9:15 AM on Saturday 20 Dec 2014 (Local Time) from KFXY Reporting Station
Haze Haze  
Wind Chill: 26°   Ceiling: 500
Heat Index: 32°   Visibility: 4mi
Dew Point: 30°   Wind: 6mph
Humidity: 93%   Direction: 170°S
Pressure: 30.14"   Gusts: NA
Location:  43.37°N, 93.77°W
Report Text: KFXY 201515Z AUTO 17005KT 4SM BR BKN005 OVC010 00/M01 A3014 RMK AO2
Loading
Personal Weather Stations






























Interactive Weather Map New forecast layout! Learn more

10-Day Weather Forecast

Advertisements
Track Severe Weather on mobile